createdAt,value
2022-11-26T00:02:26.785Z,10.00
2022-11-26T00:04:54.795Z,10.00
2022-11-26T00:07:30.875Z,10.10
2022-11-26T00:09:59.372Z,10.00
2022-11-26T00:12:33.553Z,10.00
2022-11-26T00:15:10.722Z,10.00
2022-11-26T00:17:37.527Z,10.00
2022-11-26T00:20:04.857Z,10.00
2022-11-26T00:22:36.078Z,10.00
2022-11-26T00:25:03.131Z,10.00
2022-11-26T00:27:30.047Z,10.00
2022-11-26T00:29:56.953Z,10.00
2022-11-26T00:32:26.058Z,9.90
2022-11-26T00:34:55.708Z,10.00
2022-11-26T00:37:27.290Z,9.90
2022-11-26T00:39:55.679Z,9.90
2022-11-26T00:42:23.013Z,9.90
2022-11-26T00:44:49.831Z,9.90
2022-11-26T00:47:16.630Z,9.90
2022-11-26T00:49:43.424Z,9.90
2022-11-26T00:52:34.264Z,9.90
2022-11-26T00:55:07.127Z,9.90
2022-11-26T00:57:34.079Z,9.90
2022-11-26T01:00:00.897Z,9.90
2022-11-26T01:02:27.755Z,9.90
2022-11-26T01:04:54.615Z,9.90
2022-11-26T01:07:21.528Z,9.80
2022-11-26T01:09:48.564Z,9.80
2022-11-26T01:12:15.581Z,9.80
2022-11-26T01:14:42.653Z,9.70
2022-11-26T01:17:12.112Z,9.70
2022-11-26T01:19:38.922Z,9.70
2022-11-26T01:22:05.768Z,9.70
2022-11-26T01:24:32.599Z,9.70
2022-11-26T01:26:59.407Z,9.70
2022-11-26T01:29:26.181Z,9.70
2022-11-26T01:31:53.095Z,9.70
2022-11-26T01:34:19.927Z,9.70
2022-11-26T01:36:46.739Z,9.70
2022-11-26T01:39:20.015Z,9.60
2022-11-26T01:42:05.303Z,9.60
2022-11-26T01:44:35.547Z,9.70
2022-11-26T01:47:17.839Z,9.60
2022-11-26T01:50:22.877Z,9.60
2022-11-26T01:52:49.876Z,9.60
2022-11-26T01:55:17.940Z,9.60
2022-11-26T01:57:45.660Z,9.60
2022-11-26T02:00:13.171Z,9.60
2022-11-26T02:02:40.870Z,9.60
2022-11-26T02:05:11.521Z,9.60
2022-11-26T02:07:39.052Z,9.60
2022-11-26T02:10:06.720Z,9.60
2022-11-26T02:12:34.077Z,9.60
2022-11-26T02:15:00.931Z,9.60
2022-11-26T02:17:32.173Z,9.60
2022-11-26T02:20:11.339Z,9.60
2022-11-26T02:22:50.006Z,9.60
2022-11-26T02:25:39.779Z,9.60
2022-11-26T02:28:44.154Z,9.60
2022-11-26T02:31:30.183Z,9.60
2022-11-26T02:34:42.067Z,9.60
2022-11-26T02:37:17.216Z,9.60
2022-11-26T02:39:44.020Z,9.60
2022-11-26T02:42:27.839Z,9.60
2022-11-26T02:44:58.973Z,9.60
2022-11-26T02:47:28.046Z,9.50
2022-11-26T02:49:58.608Z,9.60
2022-11-26T02:52:27.453Z,9.50
2022-11-26T02:54:56.760Z,9.50
2022-11-26T02:57:26.521Z,9.50
2022-11-26T02:59:53.712Z,9.50
2022-11-26T03:02:24.882Z,9.50
2022-11-26T03:04:56.509Z,9.50
2022-11-26T03:07:23.765Z,9.50
2022-11-26T03:09:56.374Z,9.50
2022-11-26T03:12:24.098Z,9.50
2022-11-26T03:14:51.529Z,9.50
2022-11-26T03:17:18.957Z,9.50
2022-11-26T03:19:46.807Z,9.50
2022-11-26T03:22:14.610Z,9.50
2022-11-26T03:24:41.613Z,9.50
2022-11-26T03:27:08.443Z,9.50
2022-11-26T03:29:35.270Z,9.50
2022-11-26T03:32:02.254Z,9.50
2022-11-26T03:34:29.121Z,9.50
2022-11-26T03:36:55.932Z,9.50
2022-11-26T03:39:22.756Z,9.50
2022-11-26T03:41:49.586Z,9.50
2022-11-26T03:44:16.474Z,9.50
2022-11-26T03:46:43.270Z,9.50
2022-11-26T03:49:10.082Z,9.50
2022-11-26T03:51:37.071Z,9.50
2022-11-26T03:54:03.946Z,9.40
2022-11-26T03:56:30.780Z,9.50
2022-11-26T03:58:57.658Z,9.50
2022-11-26T04:01:24.574Z,9.40
2022-11-26T04:03:51.787Z,9.40
2022-11-26T04:06:18.614Z,9.50
2022-11-26T04:08:45.466Z,9.50
2022-11-26T04:11:13.768Z,9.40
2022-11-26T04:13:40.624Z,9.40
2022-11-26T04:16:07.729Z,9.50
2022-11-26T04:18:34.748Z,9.50
2022-11-26T04:21:01.889Z,9.50
2022-11-26T04:23:28.677Z,9.40
2022-11-26T04:25:55.452Z,9.50
2022-11-26T04:28:22.273Z,9.40
2022-11-26T04:30:49.127Z,9.40
2022-11-26T04:33:16.191Z,9.40
2022-11-26T04:35:43.514Z,9.40
2022-11-26T04:38:10.537Z,9.40
2022-11-26T04:40:37.348Z,9.50
2022-11-26T04:43:04.320Z,9.50
2022-11-26T04:45:31.177Z,9.50
2022-11-26T04:47:58.158Z,9.50
2022-11-26T04:50:25.291Z,9.50
2022-11-26T04:52:52.122Z,9.50
2022-11-26T04:55:19.019Z,9.50
2022-11-26T04:57:48.694Z,9.50
2022-11-26T05:00:17.586Z,9.40
2022-11-26T05:02:44.638Z,9.50
2022-11-26T05:05:12.189Z,9.40
2022-11-26T05:07:39.213Z,9.40
2022-11-26T05:10:08.642Z,9.40
2022-11-26T05:12:35.745Z,9.40
2022-11-26T05:15:03.324Z,9.40
2022-11-26T05:17:30.341Z,9.40
2022-11-26T05:19:57.119Z,9.40
2022-11-26T05:22:24.032Z,9.40
2022-11-26T05:24:50.828Z,9.30
2022-11-26T05:27:17.632Z,9.40
2022-11-26T05:29:44.438Z,9.30
2022-11-26T05:32:11.266Z,9.30
2022-11-26T05:34:38.401Z,9.30
2022-11-26T05:37:05.676Z,9.30
2022-11-26T05:39:32.538Z,9.40
2022-11-26T05:41:59.344Z,9.30
2022-11-26T05:44:26.313Z,9.30
2022-11-26T05:46:53.164Z,9.40
2022-11-26T05:49:19.953Z,9.40
2022-11-26T05:51:46.787Z,9.30
2022-11-26T05:54:15.140Z,9.40
2022-11-26T05:56:43.816Z,9.30
2022-11-26T05:59:10.988Z,9.30
2022-11-26T06:01:38.039Z,9.30
2022-11-26T06:04:05.111Z,9.40
2022-11-26T06:06:31.932Z,9.40
2022-11-26T06:08:59.057Z,9.40
2022-11-26T06:11:25.904Z,9.40
2022-11-26T06:13:52.717Z,9.40
2022-11-26T06:16:19.598Z,9.40
2022-11-26T06:18:46.631Z,9.40
2022-11-26T06:21:13.466Z,9.40
2022-11-26T06:23:43.821Z,9.40
2022-11-26T06:26:16.505Z,9.40
2022-11-26T06:28:43.324Z,9.40
2022-11-26T06:31:10.584Z,9.50
2022-11-26T06:33:38.387Z,9.50
2022-11-26T06:36:05.935Z,9.50
2022-11-26T06:38:33.245Z,9.50
2022-11-26T06:41:08.461Z,9.50
2022-11-26T06:43:36.243Z,9.50
2022-11-26T06:46:05.513Z,9.50
2022-11-26T06:48:33.557Z,9.50
2022-11-26T06:51:21.960Z,9.60
2022-11-26T06:53:49.385Z,9.60
2022-11-26T06:56:19.064Z,9.60
2022-11-26T06:58:47.621Z,9.60
2022-11-26T07:01:23.936Z,9.60
2022-11-26T07:03:50.903Z,9.60
2022-11-26T07:06:23.529Z,9.60
2022-11-26T07:08:51.776Z,9.60
2022-11-26T07:11:19.266Z,9.70
2022-11-26T07:13:46.179Z,9.70
2022-11-26T07:16:15.271Z,9.70
2022-11-26T07:18:42.163Z,9.70
2022-11-26T07:21:11.460Z,9.70
2022-11-26T07:23:39.745Z,9.70
2022-11-26T07:26:07.555Z,9.70
2022-11-26T07:28:35.249Z,9.70
2022-11-26T07:31:11.544Z,9.70
2022-11-26T07:33:41.472Z,9.70
2022-11-26T07:36:13.715Z,9.70
2022-11-26T07:38:40.531Z,9.70
2022-11-26T07:41:10.111Z,9.80
2022-11-26T07:43:38.336Z,9.70
2022-11-26T07:46:07.266Z,9.80
2022-11-26T07:48:35.223Z,9.80
2022-11-26T07:51:02.682Z,9.80
2022-11-26T07:53:33.628Z,9.80
2022-11-26T07:56:00.461Z,9.80
2022-11-26T07:58:27.285Z,9.80
2022-11-26T08:00:55.019Z,9.80
2022-11-26T08:03:22.068Z,9.90
2022-11-26T08:05:48.951Z,9.90
2022-11-26T08:08:15.857Z,9.90
2022-11-26T08:10:42.699Z,9.90
2022-11-26T08:13:09.563Z,9.90
2022-11-26T08:15:37.738Z,9.90
2022-11-26T08:18:04.675Z,9.90
2022-11-26T08:20:31.484Z,9.90
2022-11-26T08:22:58.289Z,9.90
2022-11-26T08:25:25.192Z,9.90
2022-11-26T08:27:52.036Z,10.00
2022-11-26T08:30:18.937Z,10.00
2022-11-26T08:32:45.728Z,10.00
2022-11-26T08:35:12.698Z,10.00
2022-11-26T08:37:42.332Z,10.00
2022-11-26T08:40:09.737Z,10.00
2022-11-26T08:42:36.531Z,10.00
2022-11-26T08:45:03.601Z,10.00
2022-11-26T08:47:30.391Z,10.00
2022-11-26T08:49:57.182Z,10.00
2022-11-26T08:52:24.058Z,9.90
2022-11-26T08:54:50.957Z,10.00
2022-11-26T08:57:17.896Z,10.00
2022-11-26T08:59:44.691Z,10.00
2022-11-26T09:02:15.992Z,10.00
2022-11-26T09:04:45.320Z,10.10
2022-11-26T09:07:12.336Z,10.10
2022-11-26T09:09:39.266Z,10.10
2022-11-26T09:12:06.712Z,10.10
2022-11-26T09:14:39.398Z,10.10
2022-11-26T09:17:07.177Z,10.10
2022-11-26T09:19:34.069Z,10.10
2022-11-26T09:22:00.993Z,10.10
2022-11-26T09:24:27.787Z,10.10
2022-11-26T09:26:54.670Z,10.10
2022-11-26T09:29:23.215Z,10.10
2022-11-26T09:34:38.412Z,10.00
2022-11-26T09:37:05.552Z,10.00
2022-11-26T09:39:32.659Z,10.00
2022-11-26T09:42:12.014Z,10.00
2022-11-26T09:44:52.902Z,10.10
2022-11-26T09:47:28.502Z,10.00
2022-11-26T09:50:13.631Z,10.10
2022-11-26T09:52:59.054Z,10.10
2022-11-26T09:55:35.565Z,10.20
2022-11-26T09:58:27.249Z,10.10
2022-11-26T10:00:57.320Z,10.10
2022-11-26T10:03:31.955Z,10.20
2022-11-26T10:06:10.839Z,10.10
2022-11-26T10:08:56.596Z,10.10
2022-11-26T10:11:44.617Z,10.20
2022-11-26T10:14:46.160Z,10.20
2022-11-26T10:17:40.011Z,10.20
2022-11-26T10:20:22.065Z,10.20
2022-11-26T10:22:57.377Z,10.20
2022-11-26T10:25:28.512Z,10.30
2022-11-26T10:28:00.110Z,10.30
2022-11-26T10:30:29.357Z,10.30
2022-11-26T10:33:00.873Z,10.40
2022-11-26T10:35:29.368Z,10.40
2022-11-26T10:37:59.263Z,10.40
2022-11-26T10:40:31.180Z,10.40
2022-11-26T10:43:09.676Z,10.40
2022-11-26T10:45:45.787Z,10.40
2022-11-26T10:48:16.501Z,10.40
2022-11-26T10:50:54.253Z,10.40
2022-11-26T10:53:23.114Z,10.50
2022-11-26T10:55:52.415Z,10.50
2022-11-26T10:58:26.911Z,10.50
2022-11-26T11:01:03.737Z,10.50
2022-11-26T11:04:07.339Z,10.40
2022-11-26T11:06:35.356Z,10.40
2022-11-26T11:09:25.850Z,10.40
2022-11-26T11:12:11.358Z,10.40
2022-11-26T11:14:43.969Z,10.40
2022-11-26T11:17:33.523Z,10.40
2022-11-26T11:20:12.318Z,10.40
2022-11-26T11:22:39.203Z,10.40
2022-11-26T11:25:21.111Z,10.40
2022-11-26T11:27:48.957Z,10.40
2022-11-26T11:30:26.624Z,10.40
2022-11-26T11:32:57.566Z,10.50
2022-11-26T11:35:31.742Z,10.40
2022-11-26T11:37:59.168Z,10.40
2022-11-26T11:40:30.483Z,10.40
2022-11-26T11:43:05.745Z,10.30
2022-11-26T11:46:01.334Z,10.30
2022-11-26T11:48:43.430Z,10.40
2022-11-26T11:51:37.152Z,10.40
2022-11-26T11:54:17.947Z,10.40
2022-11-26T11:56:52.680Z,10.40
2022-11-26T11:59:48.065Z,10.40
2022-11-26T12:02:17.671Z,10.40
2022-11-26T12:05:06.231Z,10.40
2022-11-26T12:07:42.293Z,10.40
2022-11-26T12:10:15.608Z,10.40
2022-11-26T12:13:02.712Z,10.40
2022-11-26T12:15:33.948Z,10.40
2022-11-26T12:18:40.002Z,10.40
2022-11-26T12:21:19.451Z,10.40
2022-11-26T12:24:07.154Z,10.50
2022-11-26T12:26:48.789Z,10.50
2022-11-26T12:29:30.917Z,10.60
2022-11-26T12:32:05.555Z,10.60
2022-11-26T12:34:40.244Z,10.60
2022-11-26T12:37:30.273Z,10.60
2022-11-26T12:40:10.213Z,10.70
2022-11-26T12:43:01.716Z,10.60
2022-11-26T12:45:43.706Z,10.70
2022-11-26T12:48:32.320Z,10.70
2022-11-26T12:51:23.302Z,10.70
2022-11-26T12:53:50.055Z,10.70
2022-11-26T12:56:26.313Z,10.70
2022-11-26T12:59:10.447Z,10.70
2022-11-26T13:01:37.587Z,10.80
2022-11-26T13:04:35.652Z,10.80
2022-11-26T13:06:57.516Z,10.90
2022-11-26T13:09:30.174Z,10.90
2022-11-26T13:12:15.185Z,10.90
2022-11-26T13:15:06.832Z,11.00
2022-11-26T13:17:45.920Z,11.00
2022-11-26T13:20:38.470Z,11.00
2022-11-26T13:23:23.333Z,11.00
2022-11-26T13:26:05.126Z,11.00
2022-11-26T13:28:31.902Z,11.00
2022-11-26T13:31:36.559Z,11.10
2022-11-26T13:34:22.011Z,11.10
2022-11-26T13:37:13.791Z,11.10
2022-11-26T13:39:59.464Z,11.10
2022-11-26T13:42:58.414Z,11.10
2022-11-26T13:45:47.966Z,11.10
2022-11-26T13:48:17.719Z,11.10
2022-11-26T13:50:58.383Z,11.10
2022-11-26T13:53:32.643Z,11.10
2022-11-26T13:56:05.731Z,11.20
2022-11-26T13:58:41.701Z,11.10
2022-11-26T14:01:26.613Z,11.10
2022-11-26T14:03:53.560Z,11.10
2022-11-26T14:06:20.857Z,11.10
2022-11-26T14:08:51.471Z,11.10
2022-11-26T14:11:46.214Z,11.10
2022-11-26T14:14:24.973Z,11.10
2022-11-26T14:17:35.401Z,11.10
2022-11-26T14:20:03.140Z,11.10
2022-11-26T14:22:33.225Z,11.10
2022-11-26T14:25:05.525Z,11.10
2022-11-26T14:27:49.135Z,11.10
2022-11-26T14:30:20.051Z,11.10
2022-11-26T14:33:16.335Z,11.10
2022-11-26T14:35:56.427Z,11.10
2022-11-26T14:38:26.861Z,11.10
2022-11-26T14:40:59.180Z,11.10
2022-11-26T14:43:26.463Z,11.10
2022-11-26T14:46:14.039Z,11.10
2022-11-26T14:48:48.781Z,11.10
2022-11-26T14:51:23.277Z,11.10
2022-11-26T14:53:50.955Z,11.10
2022-11-26T14:56:19.780Z,11.00
2022-11-26T14:58:53.896Z,11.10
2022-11-26T15:01:23.437Z,11.00
2022-11-26T15:03:55.686Z,11.10
2022-11-26T15:06:28.885Z,11.10
2022-11-26T15:09:15.407Z,11.10
2022-11-26T15:11:48.852Z,11.10
2022-11-26T15:14:20.745Z,11.00
2022-11-26T15:17:01.211Z,11.10
2022-11-26T15:19:32.327Z,11.10
2022-11-26T15:22:02.878Z,11.10
2022-11-26T15:24:29.811Z,11.10
2022-11-26T15:26:56.665Z,11.00
2022-11-26T15:29:31.057Z,11.00
2022-11-26T15:31:58.499Z,11.10
2022-11-26T15:34:26.622Z,11.10
2022-11-26T15:36:53.616Z,11.10
2022-11-26T15:39:31.235Z,11.10
2022-11-26T15:42:20.474Z,11.10
2022-11-26T15:44:49.545Z,11.10
2022-11-26T15:47:21.165Z,11.10
2022-11-26T15:49:52.854Z,11.10
2022-11-26T15:52:24.290Z,11.10
2022-11-26T15:55:16.553Z,11.10
2022-11-26T15:57:44.364Z,11.10
2022-11-26T16:00:22.245Z,11.10
2022-11-26T16:02:49.202Z,11.10
2022-11-26T16:05:28.788Z,11.10
2022-11-26T16:08:01.232Z,11.10
2022-11-26T16:10:31.581Z,11.00
2022-11-26T16:13:19.212Z,11.10
2022-11-26T16:15:54.416Z,11.00
2022-11-26T16:18:25.085Z,11.00
2022-11-26T16:21:02.716Z,11.00
2022-11-26T16:23:30.321Z,11.00
2022-11-26T16:26:17.423Z,11.00
2022-11-26T16:28:46.250Z,11.00
2022-11-26T16:31:14.939Z,10.90
2022-11-26T16:33:42.823Z,10.90
2022-11-26T16:36:29.893Z,10.90
2022-11-26T16:38:57.073Z,11.00
2022-11-26T16:41:24.070Z,11.00
2022-11-26T16:43:51.044Z,11.00
2022-11-26T16:46:27.736Z,11.00
2022-11-26T16:48:54.675Z,11.00
2022-11-26T16:51:22.203Z,11.00
2022-11-26T16:53:49.053Z,11.00
2022-11-26T16:56:37.485Z,11.00
2022-11-26T16:59:11.106Z,11.00
2022-11-26T17:01:37.897Z,11.00
2022-11-26T17:04:04.683Z,11.00
2022-11-26T17:06:34.041Z,11.10
2022-11-26T17:09:01.866Z,11.10
2022-11-26T17:11:28.739Z,11.00
2022-11-26T17:13:55.698Z,11.10
2022-11-26T17:16:23.761Z,11.10
2022-11-26T17:18:50.773Z,11.00
2022-11-26T17:21:17.617Z,11.00
2022-11-26T17:23:44.478Z,11.00
2022-11-26T17:26:21.229Z,11.00
2022-11-26T17:28:48.450Z,11.00
2022-11-26T17:31:15.784Z,11.00
2022-11-26T17:33:42.670Z,11.00
2022-11-26T17:36:20.982Z,11.00
2022-11-26T17:38:48.363Z,11.00
2022-11-26T17:41:15.893Z,11.00
2022-11-26T17:43:43.274Z,11.00
2022-11-26T17:46:20.924Z,11.00
2022-11-26T17:48:49.049Z,10.90
2022-11-26T17:51:16.301Z,10.90
2022-11-26T17:53:43.722Z,10.90
2022-11-26T17:56:17.442Z,10.90
2022-11-26T17:58:44.268Z,11.00
2022-11-26T18:01:11.217Z,10.90
2022-11-26T18:03:38.037Z,11.00
2022-11-26T18:06:05.107Z,11.00
2022-11-26T18:08:31.962Z,11.00
2022-11-26T18:10:58.868Z,11.00
2022-11-26T18:13:27.294Z,11.00
2022-11-26T18:16:00.953Z,11.00
2022-11-26T18:18:27.971Z,11.00
2022-11-26T18:20:55.180Z,11.00
2022-11-26T18:23:22.041Z,11.00
2022-11-26T18:25:49.075Z,11.00
2022-11-26T18:28:16.979Z,11.00
2022-11-26T18:30:47.306Z,11.00
2022-11-26T18:33:15.186Z,11.00
2022-11-26T18:35:42.833Z,11.00
2022-11-26T18:38:11.522Z,11.00
2022-11-26T18:40:38.672Z,11.00
2022-11-26T18:43:05.666Z,11.00
2022-11-26T18:45:32.742Z,11.00
2022-11-26T18:48:00.268Z,11.00
2022-11-26T18:50:27.265Z,11.00
2022-11-26T18:52:56.046Z,11.00
2022-11-26T18:55:22.846Z,10.90
2022-11-26T18:57:49.649Z,10.90
2022-11-26T19:00:16.899Z,10.90
2022-11-26T19:02:43.820Z,10.90
2022-11-26T19:05:11.235Z,10.80
2022-11-26T19:07:38.134Z,10.80
2022-11-26T19:10:05.492Z,10.80
2022-11-26T19:12:32.316Z,10.70
2022-11-26T19:14:59.088Z,10.70
2022-11-26T19:17:25.930Z,10.70
2022-11-26T19:19:52.734Z,10.70
2022-11-26T19:22:19.513Z,10.70
2022-11-26T19:24:47.674Z,10.70
2022-11-26T19:27:14.491Z,10.70
2022-11-26T19:29:41.894Z,10.70
2022-11-26T19:32:09.000Z,10.60
2022-11-26T19:34:35.825Z,10.60
2022-11-26T19:37:02.889Z,10.60
2022-11-26T19:39:29.749Z,10.60
2022-11-26T19:41:56.582Z,10.60
2022-11-26T19:44:23.479Z,10.50
2022-11-26T19:46:50.277Z,10.60
2022-11-26T19:49:17.101Z,10.60
2022-11-26T19:51:44.007Z,10.60
2022-11-26T19:54:10.977Z,10.60
2022-11-26T19:56:38.435Z,10.60
2022-11-26T19:59:05.665Z,10.60
2022-11-26T20:01:34.270Z,10.60
2022-11-26T20:04:03.929Z,10.60
2022-11-26T20:06:32.368Z,10.50
2022-11-26T20:08:59.451Z,10.50
2022-11-26T20:11:27.597Z,10.50
2022-11-26T20:13:54.765Z,10.50
2022-11-26T20:16:25.854Z,10.50
2022-11-26T20:18:53.154Z,10.50
2022-11-26T20:21:22.482Z,10.40
2022-11-26T20:23:50.870Z,10.40
2022-11-26T20:26:21.959Z,10.40
2022-11-26T20:28:49.555Z,10.30
2022-11-26T20:31:22.075Z,10.30
2022-11-26T20:33:50.953Z,10.30
2022-11-26T20:36:20.545Z,10.30
2022-11-26T20:38:51.065Z,10.30
2022-11-26T20:41:17.917Z,10.20
2022-11-26T20:43:45.053Z,10.20
2022-11-26T20:46:14.094Z,10.20
2022-11-26T20:48:43.519Z,10.20
2022-11-26T20:51:12.864Z,10.30
2022-11-26T20:53:40.865Z,10.30
2022-11-26T20:56:08.873Z,10.30
2022-11-26T20:58:36.630Z,10.20
2022-11-26T21:01:03.584Z,10.30
2022-11-26T21:03:31.605Z,10.20
2022-11-26T21:06:02.806Z,10.10
2022-11-26T21:08:29.700Z,10.20
2022-11-26T21:10:56.614Z,10.10
2022-11-26T21:13:23.426Z,10.10
2022-11-26T21:15:50.228Z,10.10
2022-11-26T21:18:17.168Z,10.10
2022-11-26T21:20:44.747Z,10.10
2022-11-26T21:23:13.055Z,10.10
2022-11-26T21:25:42.564Z,10.00
2022-11-26T21:28:10.735Z,10.00
2022-11-26T21:30:38.615Z,10.00
2022-11-26T21:33:09.265Z,10.10
2022-11-26T21:35:37.355Z,10.10
2022-11-26T21:38:05.891Z,10.10
2022-11-26T21:40:33.811Z,10.00
2022-11-26T21:43:00.642Z,10.00
2022-11-26T21:45:30.268Z,10.00
2022-11-26T21:47:57.139Z,9.90
2022-11-26T21:50:23.966Z,9.90
2022-11-26T21:52:50.777Z,9.90
2022-11-26T21:55:17.684Z,9.90
2022-11-26T21:57:44.490Z,9.90
2022-11-26T22:00:11.761Z,9.80
2022-11-26T22:02:38.610Z,9.80
2022-11-26T22:05:05.577Z,9.80
2022-11-26T22:07:32.668Z,9.80
2022-11-26T22:09:59.643Z,9.80
2022-11-26T22:12:26.569Z,9.80
2022-11-26T22:14:53.532Z,9.80
2022-11-26T22:17:20.433Z,9.80
2022-11-26T22:19:47.413Z,9.80
2022-11-26T22:22:14.236Z,9.80
2022-11-26T22:24:41.073Z,9.70
2022-11-26T22:27:07.884Z,9.70
2022-11-26T22:29:34.690Z,9.70
2022-11-26T22:32:01.583Z,9.70
2022-11-26T22:34:29.247Z,9.70
2022-11-26T22:36:56.086Z,9.60
2022-11-26T22:39:22.968Z,9.60
2022-11-26T22:41:49.978Z,9.60
2022-11-26T22:44:17.640Z,9.70
2022-11-26T22:46:45.223Z,9.60
2022-11-26T22:49:14.191Z,9.60
2022-11-26T22:51:41.386Z,9.70
2022-11-26T22:54:11.922Z,9.60
2022-11-26T22:56:39.206Z,9.60
2022-11-26T22:59:08.117Z,9.60
2022-11-26T23:01:36.532Z,9.50
2022-11-26T23:04:06.521Z,9.50
2022-11-26T23:06:35.741Z,9.50
2022-11-26T23:09:04.594Z,9.50
2022-11-26T23:11:42.085Z,9.50
2022-11-26T23:14:11.949Z,9.40
2022-11-26T23:16:42.392Z,9.40
2022-11-26T23:19:09.696Z,9.50
2022-11-26T23:21:40.140Z,9.50
2022-11-26T23:24:07.690Z,9.50
2022-11-26T23:26:37.042Z,9.50
2022-11-26T23:29:05.266Z,9.50
2022-11-26T23:31:34.911Z,9.50
2022-11-26T23:34:02.206Z,9.50
2022-11-26T23:36:30.185Z,9.50
2022-11-26T23:38:58.958Z,9.50
2022-11-26T23:41:25.797Z,9.50
2022-11-26T23:43:52.704Z,9.50
2022-11-26T23:46:31.279Z,9.50
2022-11-26T23:48:58.261Z,9.50
2022-11-26T23:51:27.549Z,9.50
2022-11-26T23:53:54.951Z,9.50
2022-11-26T23:56:24.936Z,9.50
2022-11-26T23:58:53.550Z,9.50
